Time;durP1;ratioP1;P1;durP2;ratioP2;P2;SDS_P1;SDS_P2;PMS_P1;PMS_P2;Temp;Humidity;BMP_temperature;BMP_pressure;BME280_temperature;BME280_humidity;BME280_pressure;Samples;Min_cycle;Max_cycle;Signal;HPM_P1;HPM_P2
2024/03/06 06:00:40;;;;;;;12.52;8.55;;;6.60;99.10;;;;;;4776195;23;20078;-82
2024/03/06 06:02:42;;;;;;;12.82;8.73;;;6.70;99.20;;;;;;4084425;29;20052;-82
2024/03/06 06:04:44;;;;;;;11.73;8.30;;;6.70;99.20;;;;;;4087783;29;20092;-84
2024/03/06 06:06:46;;;;;;;11.80;8.23;;;6.70;99.00;;;;;;4087709;29;20158;-82
2024/03/06 06:08:48;;;;;;;12.88;8.10;;;6.70;99.00;;;;;;4087834;29;20269;-82
2024/03/06 06:10:51;;;;;;;12.02;8.20;;;6.70;99.20;;;;;;4087771;29;20457;-83
2024/03/06 06:12:53;;;;;;;12.63;8.10;;;6.70;99.00;;;;;;4087753;29;20054;-82
2024/03/06 06:14:55;;;;;;;11.30;7.55;;;6.70;99.20;;;;;;4087648;29;20178;-82
2024/03/06 06:16:58;;;;;;;12.95;8.30;;;6.70;99.10;;;;;;4087802;29;20051;-82
2024/03/06 06:19:00;;;;;;;11.57;8.05;;;6.70;99.10;;;;;;4096023;29;20048;-80
2024/03/06 06:21:07;;;;;;;10.63;7.70;;;6.70;99.10;;;;;;4100886;29;20060;-82
2024/03/06 06:23:09;;;;;;;11.60;8.20;;;6.70;99.00;;;;;;4102325;29;20059;-84
2024/03/06 06:25:13;;;;;;;10.25;7.35;;;6.80;99.10;;;;;;4102364;29;20047;-82
2024/03/06 06:27:14;;;;;;;13.00;8.80;;;6.80;99.00;;;;;;4086889;29;20056;-85
2024/03/06 06:29:16;;;;;;;11.95;8.13;;;6.70;98.90;;;;;;4101374;29;20047;-83
2024/03/06 06:31:18;;;;;;;13.85;8.63;;;6.70;99.00;;;;;;4098783;29;20501;-83
2024/03/06 06:33:23;;;;;;;13.70;8.52;;;6.50;99.20;;;;;;4093206;29;20135;-84
2024/03/06 06:35:25;;;;;;;12.65;8.80;;;6.60;99.30;;;;;;4096493;29;20047;-84
2024/03/06 06:37:26;;;;;;;13.35;8.52;;;6.60;99.40;;;;;;4109366;29;20142;-84
2024/03/06 06:39:28;;;;;;;11.63;8.40;;;6.50;99.70;;;;;;4106312;29;20099;-81
2024/03/06 06:41:30;;;;;;;13.57;8.35;;;6.60;99.40;;;;;;4108963;29;20055;-82
2024/03/06 06:43:32;;;;;;;13.77;8.75;;;6.70;99.20;;;;;;4105691;29;20051;-82
2024/03/06 06:45:34;;;;;;;11.05;8.18;;;6.60;99.10;;;;;;4106617;29;20066;-81
2024/03/06 06:47:36;;;;;;;13.02;8.57;;;6.60;99.30;;;;;;4105086;29;20102;-80
2024/03/06 06:49:39;;;;;;;10.77;8.27;;;6.50;99.40;;;;;;4106948;29;20163;-80
2024/03/06 06:51:41;;;;;;;14.30;8.73;;;6.50;99.30;;;;;;4109513;29;20047;-82
2024/03/06 06:53:43;;;;;;;13.82;9.32;;;6.40;99.50;;;;;;4107957;29;20063;-81
2024/03/06 06:55:44;;;;;;;15.10;9.13;;;6.40;99.90;;;;;;4106975;29;20505;-81
2024/03/06 06:57:46;;;;;;;15.43;10.27;;;6.40;99.90;;;;;;4105375;29;20465;-81
2024/03/06 06:59:48;;;;;;;13.20;9.45;;;6.30;99.90;;;;;;4106897;29;20113;-81
2024/03/06 07:01:50;;;;;;;13.02;9.57;;;6.30;99.90;;;;;;4107094;29;20413;-82
2024/03/06 07:03:52;;;;;;;16.05;10.63;;;6.30;99.90;;;;;;4107116;29;20452;-82
2024/03/06 07:05:58;;;;;;;14.40;9.45;;;6.30;99.90;;;;;;4108847;29;20074;-82
2024/03/06 07:07:59;;;;;;;12.55;8.57;;;6.30;99.90;;;;;;4106368;29;20061;-82
2024/03/06 07:10:02;;;;;;;13.25;8.68;;;6.30;99.90;;;;;;4108450;29;20473;-83
2024/03/06 07:12:05;;;;;;;14.73;8.85;;;6.40;99.90;;;;;;4108413;29;20113;-82
2024/03/06 07:14:06;;;;;;;14.90;9.25;;;6.30;99.90;;;;;;4107056;28;20051;-81
2024/03/06 07:16:09;;;;;;;14.98;8.63;;;6.40;99.90;;;;;;4106744;29;20102;-83
2024/03/06 07:18:11;;;;;;;13.60;8.35;;;6.30;99.90;;;;;;4104625;29;20054;-80
2024/03/06 07:20:14;;;;;;;12.02;8.95;;;6.30;99.90;;;;;;4103716;29;20527;-82
2024/03/06 07:22:17;;;;;;;11.77;8.15;;;6.40;99.90;;;;;;4109204;29;20138;-82
2024/03/06 07:24:20;;;;;;;13.43;8.30;;;6.50;99.90;;;;;;4103906;29;20082;-81
2024/03/06 07:26:22;;;;;;;13.93;8.00;;;6.60;99.90;;;;;;4101790;29;20044;-81
2024/03/06 07:28:25;;;;;;;13.90;7.38;;;6.60;99.90;;;;;;4084536;29;20086;-81
2024/03/06 07:30:26;;;;;;;13.52;7.90;;;6.70;99.70;;;;;;4102270;29;20079;-81
2024/03/06 07:32:29;;;;;;;12.43;7.90;;;6.70;99.50;;;;;;4095678;29;20050;-80
2024/03/06 07:34:30;;;;;;;14.38;7.57;;;6.70;99.60;;;;;;4092343;29;20112;-82
2024/03/06 07:36:33;;;;;;;11.60;7.72;;;6.70;99.70;;;;;;4091588;29;20146;-80
2024/03/06 07:38:36;;;;;;;13.95;7.80;;;6.60;99.80;;;;;;4091040;29;20043;-81
2024/03/06 07:40:38;;;;;;;12.18;7.40;;;6.70;99.90;;;;;;4093754;29;20052;-80
2024/03/06 07:42:40;;;;;;;12.40;7.75;;;6.70;99.70;;;;;;4094365;29;20120;-81
2024/03/06 07:44:42;;;;;;;12.30;7.57;;;6.80;99.70;;;;;;4097463;29;20208;-81
2024/03/06 07:46:44;;;;;;;13.77;7.80;;;6.80;99.60;;;;;;4093190;29;20079;-81
2024/03/06 07:48:45;;;;;;;13.30;7.53;;;6.80;99.60;;;;;;4093725;29;20048;-81
2024/03/06 07:50:47;;;;;;;14.60;7.13;;;6.80;99.40;;;;;;4092751;29;20082;-80
2024/03/06 07:52:49;;;;;;;12.65;7.65;;;6.80;99.30;;;;;;4096979;29;20052;-79
2024/03/06 07:54:53;;;;;;;10.98;7.03;;;6.90;99.50;;;;;;4093830;29;20378;-80
2024/03/06 07:56:54;;;;;;;10.95;7.22;;;6.90;99.40;;;;;;4092655;29;20560;-80
2024/03/06 07:58:57;;;;;;;17.35;7.55;;;7.00;99.50;;;;;;4092667;29;20054;-80
2024/03/06 08:01:00;;;;;;;13.25;8.43;;;7.00;99.50;;;;;;4106639;29;20415;-84
2024/03/06 08:03:02;;;;;;;11.68;7.78;;;7.10;99.50;;;;;;4112200;29;20091;-81
2024/03/06 08:05:04;;;;;;;13.77;8.38;;;7.10;99.50;;;;;;4111004;29;20082;-80
2024/03/06 08:07:06;;;;;;;12.32;7.93;;;7.20;99.50;;;;;;4110265;29;20047;-81
2024/03/06 08:09:07;;;;;;;12.73;7.78;;;7.20;99.50;;;;;;4102511;29;20456;-81
2024/03/06 08:11:11;;;;;;;14.07;8.23;;;7.20;99.40;;;;;;4096169;29;20477;-81
2024/03/06 08:13:13;;;;;;;11.98;7.95;;;7.20;99.10;;;;;;4076117;29;20095;-81
2024/03/06 08:15:15;;;;;;;13.13;8.35;;;7.20;99.30;;;;;;4098768;29;20051;-81
2024/03/06 08:17:16;;;;;;;12.15;8.15;;;7.20;99.20;;;;;;4089300;29;20095;-81
2024/03/06 08:19:18;;;;;;;14.30;8.88;;;7.20;99.10;;;;;;4093626;29;20047;-80
2024/03/06 08:21:19;;;;;;;13.75;9.25;;;7.30;99.10;;;;;;4096239;29;20054;-80
2024/03/06 08:23:21;;;;;;;13.48;8.18;;;7.20;99.20;;;;;;4095775;29;20059;-81
2024/03/06 08:25:23;;;;;;;14.43;8.85;;;7.10;99.50;;;;;;4095384;29;20493;-81
2024/03/06 08:27:27;;;;;;;15.00;8.88;;;7.20;99.50;;;;;;4091893;29;20044;-81
2024/03/06 08:29:28;;;;;;;15.57;8.98;;;7.20;99.70;;;;;;4093476;29;20076;-80
2024/03/06 08:31:32;;;;;;;15.45;8.90;;;7.20;99.40;;;;;;4093638;29;20051;-80
2024/03/06 08:33:34;;;;;;;16.30;9.27;;;7.10;99.60;;;;;;4095378;29;20051;-79
2024/03/06 08:35:36;;;;;;;16.40;9.30;;;7.10;99.70;;;;;;4093043;29;20047;-81
2024/03/06 08:37:37;;;;;;;16.58;9.52;;;7.10;99.40;;;;;;4091747;29;20047;-82
2024/03/06 08:39:40;;;;;;;14.13;8.60;;;7.10;99.60;;;;;;4094385;29;20078;-81
2024/03/06 08:41:42;;;;;;;16.10;9.40;;;7.20;99.60;;;;;;4107398;29;20105;-79
2024/03/06 08:43:46;;;;;;;16.92;9.40;;;7.20;99.50;;;;;;4110668;29;20047;-80
2024/03/06 08:45:49;;;;;;;17.63;9.57;;;7.20;99.80;;;;;;4113600;29;20103;-80
2024/03/06 08:47:53;;;;;;;15.95;9.98;;;7.30;99.50;;;;;;4110231;29;20067;-80
2024/03/06 08:49:54;;;;;;;19.92;10.52;;;7.40;99.50;;;;;;4105322;29;20477;-80
2024/03/06 08:51:57;;;;;;;17.42;10.35;;;7.30;99.70;;;;;;4106297;29;20067;-81
2024/03/06 08:53:58;;;;;;;17.67;10.75;;;7.30;99.80;;;;;;4106600;29;20051;-82
2024/03/06 08:56:01;;;;;;;19.17;10.90;;;7.20;99.90;;;;;;4108414;29;20385;-80
2024/03/06 08:58:04;;;;;;;15.90;10.40;;;7.30;99.60;;;;;;4107711;29;20110;-81
2024/03/06 09:00:10;;;;;;;17.40;10.68;;;7.40;99.40;;;;;;4096186;29;20099;-81
2024/03/06 09:02:19;;;;;;;15.45;10.65;;;7.30;99.60;;;;;;4074697;29;20059;-81
2024/03/06 09:04:21;;;;;;;20.00;11.40;;;7.20;99.50;;;;;;4091768;29;20047;-82
2024/03/06 09:06:23;;;;;;;17.10;10.40;;;7.30;99.40;;;;;;4090597;29;20058;-81
2024/03/06 09:08:24;;;;;;;19.77;11.88;;;7.30;99.60;;;;;;4091034;29;20564;-81
2024/03/06 09:10:27;;;;;;;20.35;11.80;;;7.30;99.50;;;;;;4095768;29;20032;-81
2024/03/06 09:12:28;;;;;;;16.88;12.10;;;7.30;99.40;;;;;;4092207;29;20032;-81
2024/03/06 09:14:31;;;;;;;16.80;11.18;;;7.40;99.10;;;;;;4092941;29;20087;-79
2024/03/06 09:16:36;;;;;;;19.20;12.02;;;7.40;99.00;;;;;;4103031;29;20057;-81
2024/03/06 09:18:43;;;;;;;19.35;12.43;;;7.40;99.30;;;;;;4104089;29;20036;-79
2024/03/06 09:20:49;;;;;;;18.70;12.68;;;7.40;99.10;;;;;;4088332;29;20052;-80
2024/03/06 09:22:54;;;;;;;21.48;13.27;;;7.40;99.20;;;;;;4099147;29;20054;-81
2024/03/06 09:24:56;;;;;;;19.92;12.40;;;7.40;99.20;;;;;;4092608;29;20056;-80
2024/03/06 09:27:01;;;;;;;16.95;11.85;;;7.40;99.40;;;;;;4102987;29;20128;-80
2024/03/06 09:29:03;;;;;;;20.08;12.35;;;7.30;99.30;;;;;;4101260;29;20066;-82
2024/03/06 09:31:06;;;;;;;19.15;12.25;;;7.30;99.30;;;;;;4116047;29;20035;-82
2024/03/06 09:33:11;;;;;;;19.00;12.05;;;7.40;99.20;;;;;;4114580;29;20082;-81
2024/03/06 09:35:17;;;;;;;20.88;12.98;;;7.40;99.10;;;;;;4118831;29;20090;-81
2024/03/06 09:37:19;;;;;;;19.65;12.80;;;7.40;99.30;;;;;;4113678;28;20445;-82
2024/03/06 09:39:22;;;;;;;20.23;12.85;;;7.40;99.20;;;;;;4109961;29;20071;-81
2024/03/06 09:41:24;;;;;;;19.55;12.65;;;7.40;99.40;;;;;;4111017;29;20385;-80
2024/03/06 09:43:26;;;;;;;20.95;12.38;;;7.40;99.40;;;;;;4107626;29;20054;-80
2024/03/06 09:45:28;;;;;;;19.20;12.45;;;7.40;99.30;;;;;;4114724;29;20047;-80
2024/03/06 09:47:36;;;;;;;19.50;12.80;;;7.40;99.40;;;;;;4113349;29;20043;-79
2024/03/06 09:49:41;;;;;;;17.38;11.38;;;7.40;99.20;;;;;;4110395;29;20055;-81
2024/03/06 09:51:46;;;;;;;18.73;11.98;;;7.40;99.30;;;;;;4111539;29;20051;-81
2024/03/06 09:53:49;;;;;;;22.50;13.13;;;7.40;99.40;;;;;;4111923;29;20043;-81
2024/03/06 09:55:52;;;;;;;19.90;13.80;;;7.40;99.60;;;;;;4108395;29;20051;-81
2024/03/06 09:57:54;;;;;;;20.75;13.27;;;7.40;99.70;;;;;;4110903;29;20086;-80
2024/03/06 09:59:56;;;;;;;20.42;12.80;;;7.40;99.80;;;;;;4109967;29;20062;-80
2024/03/06 10:02:02;;;;;;;21.55;14.15;;;7.50;99.60;;;;;;4106632;29;20058;-80
2024/03/06 10:04:19;;;;;;;21.45;12.00;;;7.50;99.80;;;;;;4088886;29;20063;-81
2024/03/06 10:06:23;;;;;;;16.05;11.00;;;7.40;99.50;;;;;;4104380;29;20043;-79
2024/03/06 10:08:26;;;;;;;18.80;12.07;;;7.40;99.50;;;;;;4104523;29;20051;-82
2024/03/06 10:10:27;;;;;;;17.70;10.52;;;7.50;99.20;;;;;;4107493;29;20086;-81
2024/03/06 10:12:31;;;;;;;19.75;11.73;;;7.50;99.10;;;;;;4111233;29;20097;-83
2024/03/06 10:14:33;;;;;;;18.75;12.38;;;7.60;99.00;;;;;;4112928;29;20048;-80
2024/03/06 10:16:36;;;;;;;18.92;12.38;;;7.70;99.50;;;;;;4111157;29;20054;-81
2024/03/06 10:18:39;;;;;;;16.77;11.27;;;7.70;99.10;;;;;;4113527;29;20070;-81
2024/03/06 10:20:44;;;;;;;20.15;11.77;;;7.70;99.00;;;;;;4115440;29;20070;-80
2024/03/06 10:22:49;;;;;;;17.20;10.95;;;7.70;98.90;;;;;;4114830;29;20079;-82
2024/03/06 10:24:57;;;;;;;18.73;11.30;;;7.70;98.60;;;;;;4114859;29;20047;-81
2024/03/06 10:27:00;;;;;;;15.90;10.95;;;7.70;98.70;;;;;;4111087;29;20130;-82
2024/03/06 10:29:02;;;;;;;21.67;11.77;;;7.80;98.80;;;;;;4114531;29;20456;-80
2024/03/06 10:31:08;;;;;;;18.88;12.27;;;7.80;99.00;;;;;;4115382;29;20067;-81
2024/03/06 10:33:10;;;;;;;21.40;12.68;;;7.80;99.10;;;;;;4093681;29;20139;-81
2024/03/06 10:35:22;;;;;;;20.50;11.68;;;7.80;99.10;;;;;;4116600;29;20074;-80
2024/03/06 10:37:28;;;;;;;20.05;12.15;;;7.70;98.70;;;;;;4100894;29;20044;-81
2024/03/06 10:39:55;;;;;;;21.42;13.48;;;7.60;98.60;;;;;;4108776;29;20048;-81
2024/03/06 10:42:03;;;;;;;19.45;12.13;;;7.70;99.10;;;;;;4080843;29;20056;-80
2024/03/06 10:44:13;;;;;;;17.55;11.88;;;7.60;98.90;;;;;;4084911;29;20080;-79
2024/03/06 10:46:17;;;;;;;18.88;11.63;;;7.70;99.00;;;;;;4093443;29;20059;-82
2024/03/06 10:48:24;;;;;;;21.67;12.70;;;7.70;99.10;;;;;;4094516;29;20052;-81
2024/03/06 10:50:26;;;;;;;21.35;12.85;;;7.80;99.10;;;;;;4099721;29;20111;-82
2024/03/06 10:52:29;;;;;;;20.25;12.85;;;7.90;99.30;;;;;;4098625;29;20075;-81
2024/03/06 10:54:34;;;;;;;22.70;13.57;;;7.90;99.20;;;;;;4096095;29;20051;-80
2024/03/06 10:56:41;;;;;;;18.23;12.45;;;8.00;99.10;;;;;;4097052;29;20119;-82
2024/03/06 10:58:45;;;;;;;20.33;12.57;;;8.00;99.00;;;;;;4099147;29;20083;-83
2024/03/06 11:00:48;;;;;;;35.35;22.60;;;8.00;99.00;;;;;;4092702;29;20442;-84
2024/03/06 11:02:54;;;;;;;22.35;14.23;;;8.00;98.90;;;;;;4102827;29;20052;-82
2024/03/06 11:04:59;;;;;;;18.70;12.35;;;8.00;98.70;;;;;;4103036;29;20080;-82
2024/03/06 11:07:06;;;;;;;18.38;11.93;;;7.90;98.60;;;;;;4103336;29;20055;-82
2024/03/06 11:09:15;;;;;;;17.17;11.55;;;8.00;98.70;;;;;;4093162;29;20047;-76
2024/03/06 11:11:24;;;;;;;18.13;11.52;;;8.00;98.90;;;;;;4104254;29;20048;-82
2024/03/06 11:13:28;;;;;;;18.63;11.32;;;8.00;98.50;;;;;;4097944;29;20048;-77
2024/03/06 11:15:32;;;;;;;17.52;11.32;;;8.00;98.50;;;;;;4096215;29;20051;-80
2024/03/06 11:17:33;;;;;;;16.08;11.45;;;7.90;98.80;;;;;;4093681;29;20058;-79
2024/03/06 11:20:16;;;;;;;19.33;11.60;;;8.00;98.60;;;;;;4097061;29;20433;-76
2024/03/06 11:22:18;;;;;;;16.92;10.73;;;8.00;98.30;;;;;;4104217;29;20071;-76
2024/03/06 11:24:21;;;;;;;16.45;11.38;;;7.90;97.90;;;;;;4102327;29;20473;-79
2024/03/06 11:26:23;;;;;;;16.67;11.05;;;7.90;98.20;;;;;;4103250;29;20047;-76
2024/03/06 11:28:29;;;;;;;15.48;10.82;;;7.90;98.30;;;;;;4101899;29;20114;-76
2024/03/06 11:30:32;;;;;;;16.05;10.95;;;7.90;98.30;;;;;;4086137;29;20052;-75
2024/03/06 11:32:34;;;;;;;20.02;11.88;;;7.90;98.60;;;;;;4088128;29;20048;-78
2024/03/06 11:34:36;;;;;;;15.15;10.55;;;8.00;98.70;;;;;;4098743;29;20138;-76
2024/03/06 11:36:43;;;;;;;19.08;11.82;;;8.00;98.60;;;;;;4105913;29;20055;-77
2024/03/06 11:38:48;;;;;;;17.67;11.38;;;8.00;98.50;;;;;;4105348;29;20059;-78
2024/03/06 11:40:53;;;;;;;16.90;11.05;;;8.00;98.30;;;;;;4105937;29;20114;-78
2024/03/06 11:42:55;;;;;;;15.30;10.48;;;8.00;98.30;;;;;;4103211;29;20388;-78
2024/03/06 11:44:59;;;;;;;14.02;10.13;;;7.90;97.80;;;;;;4102847;29;20051;-77
2024/03/06 11:47:04;;;;;;;17.98;11.30;;;7.90;97.60;;;;;;4104180;29;20133;-77
2024/03/06 11:49:14;;;;;;;17.30;11.35;;;7.80;98.10;;;;;;4103754;29;20059;-77
2024/03/06 11:51:17;;;;;;;14.43;10.70;;;7.80;98.10;;;;;;4106580;29;20047;-77
2024/03/06 11:53:21;;;;;;;18.00;11.77;;;7.90;98.10;;;;;;4103699;29;20071;-78
2024/03/06 11:55:25;;;;;;;18.80;12.20;;;7.80;98.50;;;;;;4104761;29;20540;-77
2024/03/06 11:57:28;;;;;;;20.35;12.45;;;7.70;98.60;;;;;;4102741;29;20083;-79
2024/03/06 11:59:32;;;;;;;19.73;12.85;;;7.70;98.40;;;;;;4089573;29;20458;-77
2024/03/06 12:01:36;;;;;;;16.88;11.40;;;7.60;98.70;;;;;;4086728;29;20413;-78
2024/03/06 12:03:38;;;;;;;17.67;12.20;;;7.70;98.70;;;;;;4086748;29;20115;-76
2024/03/06 12:05:40;;;;;;;17.45;12.13;;;7.70;98.90;;;;;;4087927;29;20102;-77
2024/03/06 12:07:52;;;;;;;17.33;12.48;;;7.80;98.70;;;;;;4087274;29;20103;-79
2024/03/06 12:09:54;;;;;;;18.30;12.35;;;7.70;99.10;;;;;;4087768;29;20142;-78
2024/03/06 12:11:56;;;;;;;19.50;11.85;;;7.70;98.60;;;;;;4087450;29;20052;-80
2024/03/06 12:13:59;;;;;;;16.05;11.90;;;7.70;98.30;;;;;;4088160;29;20044;-78
2024/03/06 12:16:08;;;;;;;16.10;11.68;;;7.70;98.00;;;;;;4090379;29;20107;-77
2024/03/06 12:18:11;;;;;;;19.17;12.32;;;7.80;98.30;;;;;;4089683;29;20056;-78
2024/03/06 12:20:15;;;;;;;19.25;13.60;;;7.80;98.40;;;;;;4088412;29;20074;-78
2024/03/06 12:22:19;;;;;;;18.35;12.52;;;7.70;98.90;;;;;;4088670;29;20048;-78
2024/03/06 12:24:21;;;;;;;17.75;12.60;;;7.70;98.70;;;;;;4095968;29;20051;-80
2024/03/06 12:26:24;;;;;;;19.40;13.57;;;7.80;98.90;;;;;;4099940;29;20054;-78
2024/03/06 12:28:25;;;;;;;19.55;13.10;;;7.70;98.60;;;;;;4099798;29;20051;-79
2024/03/06 12:30:27;;;;;;;18.27;12.55;;;7.70;98.90;;;;;;4099297;29;20101;-80
2024/03/06 12:32:29;;;;;;;21.70;14.82;;;7.70;98.60;;;;;;4099468;29;20106;-79
2024/03/06 12:34:33;;;;;;;20.00;13.93;;;7.80;98.70;;;;;;4099632;29;20051;-80
2024/03/06 12:36:35;;;;;;;21.73;14.23;;;7.70;98.80;;;;;;4099441;29;20116;-80
2024/03/06 12:38:38;;;;;;;21.90;14.95;;;7.70;98.60;;;;;;4099295;29;20055;-77
2024/03/06 12:40:39;;;;;;;22.52;14.13;;;7.70;98.80;;;;;;4099266;29;20051;-79
2024/03/06 12:42:41;;;;;;;21.95;14.88;;;7.70;98.30;;;;;;4099049;29;20059;-79
2024/03/06 12:44:43;;;;;;;21.15;15.40;;;7.80;98.50;;;;;;4099155;29;20469;-80
2024/03/06 12:46:45;;;;;;;22.30;15.85;;;7.80;98.70;;;;;;4099186;29;20055;-80
2024/03/06 12:48:46;;;;;;;23.17;15.52;;;7.80;98.60;;;;;;4093048;29;20074;-78
2024/03/06 12:50:51;;;;;;;22.10;15.45;;;7.80;98.40;;;;;;4083131;29;20493;-79
2024/03/06 12:52:52;;;;;;;25.90;16.67;;;7.80;98.50;;;;;;4083389;29;20047;-80
2024/03/06 12:54:54;;;;;;;26.80;17.40;;;7.80;98.50;;;;;;4083094;29;20052;-79
2024/03/06 12:56:56;;;;;;;25.02;17.40;;;7.70;99.00;;;;;;4083292;29;20056;-80
2024/03/06 12:58:58;;;;;;;24.10;17.05;;;7.70;99.10;;;;;;4081443;29;20115;-79
2024/03/06 13:01:01;;;;;;;27.08;16.95;;;7.60;99.30;;;;;;4083124;29;20565;-82
2024/03/06 13:03:03;;;;;;;26.67;17.60;;;7.70;99.20;;;;;;4083324;29;20079;-81
2024/03/06 13:05:06;;;;;;;25.40;17.42;;;7.70;99.20;;;;;;4083061;29;20059;-81
2024/03/06 13:07:10;;;;;;;26.30;17.08;;;7.70;99.50;;;;;;4082707;29;20051;-81
2024/03/06 13:09:11;;;;;;;25.95;17.58;;;7.70;99.30;;;;;;4082896;29;20048;-79
2024/03/06 13:11:13;;;;;;;27.02;18.83;;;7.70;99.20;;;;;;4083073;29;20091;-81
2024/03/06 13:13:14;;;;;;;27.35;18.63;;;7.70;99.30;;;;;;4083671;29;20048;-80
2024/03/06 13:15:16;;;;;;;27.08;17.88;;;7.60;99.60;;;;;;4098730;29;20062;-78
2024/03/06 13:17:18;;;;;;;26.33;17.70;;;7.70;99.50;;;;;;4098747;29;20094;-79
2024/03/06 13:19:20;;;;;;;27.77;18.20;;;7.60;99.70;;;;;;4090785;29;20114;-79
2024/03/06 13:21:22;;;;;;;26.52;17.95;;;7.70;99.60;;;;;;4082786;29;20103;-79
2024/03/06 13:23:25;;;;;;;28.98;19.15;;;7.60;99.50;;;;;;4082875;29;20048;-79
2024/03/06 13:25:27;;;;;;;26.65;18.20;;;7.60;99.80;;;;;;4082774;29;20112;-78
2024/03/06 13:27:29;;;;;;;28.95;19.10;;;7.70;99.40;;;;;;4082375;29;20056;-80
2024/03/06 13:29:31;;;;;;;30.65;19.95;;;7.70;99.30;;;;;;4082713;29;20468;-80
2024/03/06 13:31:34;;;;;;;28.10;18.63;;;7.70;99.60;;;;;;4082721;29;20052;-80
2024/03/06 13:33:35;;;;;;;28.50;18.67;;;7.70;99.40;;;;;;4082783;29;20056;-81
2024/03/06 13:35:37;;;;;;;28.38;18.25;;;7.80;99.30;;;;;;4082742;29;20067;-78
2024/03/06 13:37:39;;;;;;;31.08;20.30;;;7.70;99.20;;;;;;4082565;29;20106;-81
2024/03/06 13:39:41;;;;;;;33.45;21.38;;;7.50;99.60;;;;;;4095964;29;20129;-80
2024/03/06 13:41:43;;;;;;;32.70;20.75;;;7.60;99.90;;;;;;4098445;29;20082;-80
2024/03/06 13:43:45;;;;;;;33.35;22.05;;;7.50;99.90;;;;;;4089409;29;20098;-80
2024/03/06 13:45:50;;;;;;;30.42;20.35;;;7.60;99.90;;;;;;4097370;29;20048;-77
2024/03/06 13:47:51;;;;;;;30.80;19.58;;;7.60;99.90;;;;;;4092951;29;20044;-80
2024/03/06 13:49:55;;;;;;;33.30;20.45;;;7.60;99.90;;;;;;4082702;29;20445;-80
2024/03/06 13:51:56;;;;;;;33.97;20.80;;;7.60;99.90;;;;;;4085999;29;20055;-79
2024/03/06 13:53:57;;;;;;;31.17;21.08;;;7.70;99.90;;;;;;4094636;29;20476;-79
2024/03/06 13:56:01;;;;;;;32.45;21.00;;;7.70;99.90;;;;;;4085103;29;20107;-79
2024/03/06 13:58:04;;;;;;;34.13;20.83;;;7.70;99.90;;;;;;4080764;29;20080;-79
2024/03/06 14:00:12;;;;;;;33.67;22.02;;;7.70;99.90;;;;;;4097880;29;20489;-81
2024/03/06 14:02:14;;;;;;;31.13;19.90;;;7.70;99.90;;;;;;4082008;29;20102;-79
2024/03/06 14:04:15;;;;;;;31.75;21.08;;;7.70;99.90;;;;;;4097970;29;20140;-80
2024/03/06 14:06:17;;;;;;;31.38;20.70;;;7.70;99.90;;;;;;4097786;29;20051;-79
2024/03/06 14:08:19;;;;;;;34.83;21.73;;;7.80;99.90;;;;;;4098057;29;20051;-79
2024/03/06 14:10:22;;;;;;;34.55;21.90;;;7.70;99.90;;;;;;4097820;29;20452;-80
2024/03/06 14:12:25;;;;;;;34.60;22.27;;;7.60;99.90;;;;;;4082203;29;20457;-80
2024/03/06 14:14:27;;;;;;;34.72;21.38;;;7.70;99.90;;;;;;4083407;29;20107;-77
2024/03/06 14:16:29;;;;;;;33.38;20.95;;;7.70;99.90;;;;;;4083595;29;20455;-80
2024/03/06 14:18:31;;;;;;;34.88;22.17;;;7.70;99.90;;;;;;4083505;29;20146;-79
2024/03/06 14:20:33;;;;;;;34.17;21.58;;;7.80;99.90;;;;;;4081880;29;20052;-78
2024/03/06 14:22:35;;;;;;;36.78;22.98;;;7.80;99.90;;;;;;4082972;29;20056;-80
2024/03/06 14:24:37;;;;;;;35.83;22.20;;;7.70;99.90;;;;;;4082844;29;20048;-79
2024/03/06 14:26:39;;;;;;;32.78;21.17;;;7.70;99.90;;;;;;4085264;29;20445;-79
2024/03/06 14:28:42;;;;;;;37.88;22.92;;;7.70;99.90;;;;;;4085534;29;20052;-80
2024/03/06 14:30:44;;;;;;;32.47;21.58;;;7.70;99.90;;;;;;4085156;29;20190;-79
2024/03/06 14:32:46;;;;;;;39.22;23.63;;;7.80;99.90;;;;;;4085207;29;20068;-78
2024/03/06 14:34:48;;;;;;;38.80;22.63;;;7.80;99.90;;;;;;4086329;29;20103;-79
2024/03/06 14:36:51;;;;;;;36.75;23.60;;;7.70;99.90;;;;;;4085503;29;20091;-78
2024/03/06 14:38:53;;;;;;;36.63;22.45;;;7.70;99.90;;;;;;4086229;29;20055;-81
2024/03/06 14:40:55;;;;;;;37.63;22.83;;;7.80;99.90;;;;;;4086297;29;20048;-81
2024/03/06 14:42:56;;;;;;;38.15;24.02;;;7.80;99.90;;;;;;4100417;29;20551;-78
2024/03/06 14:45:00;;;;;;;38.80;24.17;;;7.90;99.90;;;;;;4099091;29;20055;-80
2024/03/06 14:47:00;;;;;;;38.75;24.38;;;7.90;99.90;;;;;;4099657;29;20043;-79
2024/03/06 14:49:02;;;;;;;39.30;23.67;;;7.90;99.90;;;;;;4099496;29;20072;-80
2024/03/06 14:51:04;;;;;;;35.95;23.60;;;7.80;99.90;;;;;;4079547;29;20138;-79
2024/03/06 14:53:06;;;;;;;38.60;24.90;;;7.80;99.90;;;;;;4101086;29;20121;-80
2024/03/06 14:55:09;;;;;;;38.40;23.70;;;7.80;99.90;;;;;;4095482;29;20055;-79
2024/03/06 14:57:12;;;;;;;40.35;24.35;;;7.80;99.90;;;;;;4085247;29;20052;-78
2024/03/06 14:59:14;;;;;;;36.08;23.45;;;7.90;99.90;;;;;;4083221;29;20244;-79
2024/03/06 15:01:17;;;;;;;36.45;22.95;;;7.90;99.90;;;;;;4084949;29;20064;-79
2024/03/06 15:03:19;;;;;;;37.35;24.35;;;7.90;99.90;;;;;;4084894;29;20048;-80
2024/03/06 15:05:21;;;;;;;40.85;25.65;;;7.80;99.90;;;;;;4085075;29;20055;-81
2024/03/06 15:07:23;;;;;;;37.53;25.23;;;7.90;99.90;;;;;;4093852;29;20055;-78
2024/03/06 15:09:25;;;;;;;37.70;24.30;;;7.90;99.90;;;;;;4102964;29;20059;-78
2024/03/06 15:11:31;;;;;;;38.17;24.77;;;8.00;99.90;;;;;;4103040;29;20055;-79
2024/03/06 15:13:33;;;;;;;;;;;8.00;99.90;;;;;;4093223;29;20458;-77
2024/03/06 15:15:36;;;;;;;38.45;23.83;;;8.00;99.90;;;;;;4106294;29;19926;-79
2024/03/06 15:17:40;;;;;;;37.95;23.83;;;8.00;99.90;;;;;;4107484;29;20055;-79
2024/03/06 15:19:41;;;;;;;35.30;23.25;;;8.00;99.90;;;;;;4108546;29;20059;-79
2024/03/06 15:21:44;;;;;;;37.40;23.35;;;8.00;99.90;;;;;;4102614;29;20106;-78
2024/03/06 15:23:49;;;;;;;36.63;22.92;;;8.00;99.90;;;;;;4091509;29;20052;-79
2024/03/06 15:25:52;;;;;;;37.65;24.38;;;7.90;99.90;;;;;;4092726;29;20047;-76
2024/03/06 15:27:57;;;;;;;37.75;23.10;;;7.90;99.90;;;;;;4094312;29;20044;-77
2024/03/06 15:30:01;;;;;;;32.35;21.80;;;7.80;99.90;;;;;;4091414;29;20044;-78
2024/03/06 15:32:04;;;;;;;35.05;21.88;;;7.90;99.90;;;;;;4092976;29;20103;-78
2024/03/06 15:34:07;;;;;;;32.92;20.40;;;7.90;99.90;;;;;;4086375;29;20083;-78
2024/03/06 15:36:10;;;;;;;33.38;20.75;;;7.90;99.90;;;;;;4075585;29;20409;-79
2024/03/06 15:38:12;;;;;;;35.38;21.23;;;7.90;99.90;;;;;;4075820;29;20075;-77
2024/03/06 15:40:15;;;;;;;32.15;20.90;;;7.90;99.90;;;;;;4087470;29;20054;-78
2024/03/06 15:42:17;;;;;;;30.52;20.45;;;7.90;99.90;;;;;;4081765;29;20067;-79
2024/03/06 15:44:19;;;;;;;33.20;20.52;;;7.90;99.90;;;;;;4075934;29;20174;-78
2024/03/06 15:46:23;;;;;;;32.67;20.15;;;7.90;99.90;;;;;;4083590;29;20079;-80
2024/03/06 15:48:25;;;;;;;32.05;20.10;;;7.90;99.90;;;;;;4079269;29;20064;-80
2024/03/06 15:50:27;;;;;;;30.95;19.00;;;7.90;99.90;;;;;;4078757;29;20123;-79
2024/03/06 15:52:29;;;;;;;34.58;20.52;;;7.90;99.90;;;;;;4073065;29;20110;-79
2024/03/06 15:54:31;;;;;;;33.65;21.15;;;7.90;99.90;;;;;;4084966;29;20095;-78
2024/03/06 15:56:33;;;;;;;30.40;19.67;;;7.90;99.90;;;;;;4079121;29;20044;-82
2024/03/06 15:58:35;;;;;;;30.83;19.10;;;8.00;99.90;;;;;;4086671;29;20055;-80
2024/03/06 16:00:37;;;;;;;32.03;19.83;;;7.90;99.90;;;;;;4092900;29;20059;-78
2024/03/06 16:02:39;;;;;;;29.17;18.25;;;8.00;99.90;;;;;;4092866;29;20071;-78
2024/03/06 16:04:41;;;;;;;28.90;19.10;;;8.00;99.90;;;;;;4086986;29;20052;-78
2024/03/06 16:06:45;;;;;;;28.52;18.38;;;8.00;99.90;;;;;;4079508;29;20060;-78
2024/03/06 16:08:47;;;;;;;29.50;18.30;;;8.00;99.90;;;;;;4077345;29;20108;-80
2024/03/06 16:10:49;;;;;;;27.38;18.25;;;8.10;99.90;;;;;;4080838;29;20056;-78
2024/03/06 16:12:52;;;;;;;29.95;18.58;;;8.10;99.90;;;;;;4076918;29;20044;-80
2024/03/06 16:14:55;;;;;;;31.15;18.48;;;8.10;99.90;;;;;;4087006;29;20102;-78
2024/03/06 16:16:58;;;;;;;30.92;18.88;;;8.10;99.90;;;;;;4079699;29;20095;-79
2024/03/06 16:19:00;;;;;;;33.65;19.50;;;8.10;99.90;;;;;;4074433;29;20052;-80
2024/03/06 16:21:02;;;;;;;30.35;18.40;;;8.00;99.90;;;;;;4081679;29;20412;-80
2024/03/06 16:23:05;;;;;;;32.92;19.75;;;8.00;99.90;;;;;;4080363;29;20106;-79
2024/03/06 16:25:08;;;;;;;32.35;19.80;;;8.00;99.90;;;;;;4085182;29;20059;-79
2024/03/06 16:27:11;;;;;;;31.77;19.58;;;8.00;99.90;;;;;;4080942;29;20047;-78
2024/03/06 16:29:13;;;;;;;40.22;23.27;;;8.00;99.90;;;;;;4089386;29;20051;-79
2024/03/06 16:31:14;;;;;;;36.10;20.55;;;8.00;99.90;;;;;;4082777;29;20056;-79
2024/03/06 16:33:16;;;;;;;36.63;21.70;;;8.00;99.90;;;;;;4070666;29;20542;-80
2024/03/06 16:35:18;;;;;;;32.40;19.80;;;8.00;99.90;;;;;;4080924;29;20103;-79